createdAt,value
2019-02-24T00:01:12.898Z,20.00
2019-02-24T00:03:42.799Z,19.33
2019-02-24T00:06:12.683Z,20.53
2019-02-24T00:08:42.561Z,19.43
2019-02-24T00:11:12.438Z,19.43
2019-02-24T00:13:42.309Z,19.97
2019-02-24T00:16:12.211Z,19.83
2019-02-24T00:18:42.099Z,20.07
2019-02-24T00:21:11.987Z,19.87
2019-02-24T00:23:41.995Z,19.23
2019-02-24T00:26:11.875Z,19.40
2019-02-24T00:28:41.882Z,18.97
2019-02-24T00:31:11.751Z,20.50
2019-02-24T00:33:41.652Z,20.30
2019-02-24T00:36:11.831Z,20.30
2019-02-24T00:38:41.705Z,19.27
2019-02-24T00:41:11.913Z,20.07
2019-02-24T00:43:41.879Z,19.80
2019-02-24T00:46:11.732Z,19.13
2019-02-24T00:48:41.709Z,19.97
2019-02-24T00:51:11.625Z,20.30
2019-02-24T00:53:41.494Z,21.27
2019-02-24T00:56:11.431Z,20.53
2019-02-24T00:58:41.347Z,19.70
2019-02-24T01:01:11.220Z,19.60
2019-02-24T01:03:41.426Z,26.53
2019-02-24T01:06:11.317Z,22.30
2019-02-24T01:08:41.234Z,22.33
2019-02-24T01:11:11.407Z,23.93
2019-02-24T01:13:41.279Z,21.23
2019-02-24T01:16:11.284Z,21.20
2019-02-24T01:18:41.202Z,20.67
2019-02-24T01:21:11.066Z,20.80
2019-02-24T01:23:40.966Z,21.43
2019-02-24T01:26:10.819Z,21.53
2019-02-24T01:28:40.696Z,20.97
2019-02-24T01:31:10.568Z,21.73
2019-02-24T01:33:40.431Z,20.90
2019-02-24T01:36:10.331Z,21.77
2019-02-24T01:38:40.210Z,20.87
2019-02-24T01:41:10.263Z,20.43
2019-02-24T01:43:40.245Z,20.13
2019-02-24T01:46:10.137Z,20.20
2019-02-24T01:48:40.074Z,21.77
2019-02-24T01:51:09.967Z,20.30
2019-02-24T01:53:39.844Z,21.97
2019-02-24T01:56:09.728Z,21.53
2019-02-24T01:58:39.634Z,24.57
2019-02-24T02:01:09.523Z,22.90
2019-02-24T02:03:39.399Z,22.50
2019-02-24T02:06:09.354Z,23.47
2019-02-24T02:08:39.203Z,22.57
2019-02-24T02:11:09.324Z,24.40
2019-02-24T02:13:39.214Z,24.13
2019-02-24T02:16:09.155Z,23.13
2019-02-24T02:18:39.154Z,23.10
2019-02-24T02:21:09.070Z,21.80
2019-02-24T02:23:38.960Z,21.83
2019-02-24T02:26:09.185Z,22.50
2019-02-24T02:28:43.980Z,23.27
2019-02-24T02:31:10.587Z,23.67
2019-02-24T02:33:40.749Z,21.10
2019-02-24T02:36:11.195Z,21.90
2019-02-24T02:38:41.069Z,21.90
2019-02-24T02:41:10.954Z,20.97
2019-02-24T02:43:40.826Z,22.30
2019-02-24T02:46:10.778Z,22.27
2019-02-24T02:48:40.672Z,22.37
2019-02-24T02:51:10.956Z,22.13
2019-02-24T02:53:40.835Z,22.57
2019-02-24T02:56:13.039Z,21.37
2019-02-24T02:58:42.362Z,23.13
2019-02-24T03:01:12.223Z,22.87
2019-02-24T03:03:42.128Z,24.53
2019-02-24T03:06:33.965Z,22.33
2019-02-24T03:09:05.539Z,21.67
2019-02-24T03:11:35.478Z,23.43
2019-02-24T03:14:05.477Z,25.27
2019-02-24T03:16:35.355Z,23.83
2019-02-24T03:19:05.288Z,22.37
2019-02-24T03:21:35.163Z,22.87
2019-02-24T03:24:05.060Z,24.73
2019-02-24T03:26:34.992Z,26.60
2019-02-24T03:29:04.878Z,26.20
2019-02-24T03:31:34.793Z,24.30
2019-02-24T03:34:04.757Z,27.07
2019-02-24T03:36:34.675Z,23.63
2019-02-24T03:39:06.061Z,24.70
2019-02-24T03:41:36.140Z,24.17
2019-02-24T03:44:06.008Z,23.40
2019-02-24T03:46:35.971Z,22.60
2019-02-24T03:49:05.858Z,24.00
2019-02-24T03:51:35.755Z,24.77
2019-02-24T03:54:05.759Z,24.43
2019-02-24T03:56:35.824Z,24.27
2019-02-24T03:59:14.627Z,25.77
2019-02-24T04:01:37.235Z,26.83
2019-02-24T04:04:07.260Z,26.73
2019-02-24T04:06:37.415Z,28.83
2019-02-24T04:09:09.151Z,25.90
2019-02-24T04:11:39.156Z,24.67
2019-02-24T04:14:09.130Z,26.53
2019-02-24T04:16:39.044Z,27.70
2019-02-24T04:19:08.915Z,26.03
2019-02-24T04:21:38.802Z,27.13
2019-02-24T04:24:08.686Z,27.40
2019-02-24T04:26:38.550Z,24.53
2019-02-24T04:29:08.427Z,22.97
2019-02-24T04:31:38.341Z,24.37
2019-02-24T04:34:08.247Z,22.20
2019-02-24T04:36:38.103Z,24.43
2019-02-24T04:39:08.095Z,22.30
2019-02-24T04:41:38.068Z,24.23
2019-02-24T04:44:07.964Z,25.33
2019-02-24T04:46:37.880Z,23.67
2019-02-24T04:49:07.787Z,23.93
2019-02-24T04:51:37.712Z,22.17
2019-02-24T04:54:07.619Z,23.83
2019-02-24T04:56:37.579Z,24.90
2019-02-24T04:59:08.727Z,24.13
2019-02-24T05:01:38.740Z,24.20
2019-02-24T05:04:08.598Z,23.33
2019-02-24T05:06:38.466Z,24.23
2019-02-24T05:09:08.443Z,25.17
2019-02-24T05:11:38.312Z,24.30
2019-02-24T05:14:08.327Z,25.20
2019-02-24T05:16:38.212Z,23.27
2019-02-24T05:19:08.148Z,24.13
2019-02-24T05:21:38.007Z,23.50
2019-02-24T05:24:07.991Z,21.00
2019-02-24T05:26:37.892Z,21.23
2019-02-24T05:29:07.755Z,22.73
2019-02-24T05:31:37.650Z,22.97
2019-02-24T05:34:07.535Z,24.47
2019-02-24T05:36:37.528Z,22.87
2019-02-24T05:39:07.524Z,21.60
2019-02-24T05:41:37.379Z,21.53
2019-02-24T05:44:07.248Z,20.73
2019-02-24T05:46:37.163Z,19.60
2019-02-24T05:49:07.052Z,21.10
2019-02-24T05:51:36.934Z,20.83
2019-02-24T05:54:06.848Z,19.93
2019-02-24T05:56:36.712Z,20.47
2019-02-24T05:59:06.695Z,20.53
2019-02-24T06:01:36.593Z,20.57
2019-02-24T06:04:06.524Z,20.50
2019-02-24T06:06:36.475Z,20.57
2019-02-24T06:09:08.407Z,21.27
2019-02-24T06:11:38.403Z,19.77
2019-02-24T06:14:08.318Z,19.90
2019-02-24T06:16:38.197Z,21.37
2019-02-24T06:19:08.081Z,21.97
2019-02-24T06:21:37.960Z,21.37
2019-02-24T06:24:07.976Z,19.80
2019-02-24T06:26:38.322Z,21.17
2019-02-24T06:29:08.356Z,21.47
2019-02-24T06:31:38.233Z,23.10
2019-02-24T06:34:08.132Z,24.90
2019-02-24T06:36:38.142Z,47.27
2019-02-24T06:39:09.457Z,21.77
2019-02-24T06:41:39.480Z,21.87
2019-02-24T06:44:09.651Z,25.13
2019-02-24T06:46:39.770Z,28.67
2019-02-24T06:49:09.747Z,27.60
2019-02-24T06:51:40.256Z,32.70
2019-02-24T06:54:10.391Z,31.93
2019-02-24T06:56:40.400Z,24.23
2019-02-24T06:59:10.764Z,39.13
2019-02-24T07:01:41.000Z,36.87
2019-02-24T07:04:10.947Z,33.73
2019-02-24T07:06:41.220Z,29.07
2019-02-24T07:09:11.358Z,33.20
2019-02-24T07:11:41.291Z,27.10
2019-02-24T07:14:11.578Z,25.50
2019-02-24T07:16:41.499Z,22.63
2019-02-24T07:19:11.444Z,21.37
2019-02-24T07:21:41.937Z,26.50
2019-02-24T07:24:12.596Z,22.67
2019-02-24T07:26:43.239Z,21.83
2019-02-24T07:29:13.180Z,20.40
2019-02-24T07:31:43.412Z,23.90
2019-02-24T07:34:13.392Z,25.30
2019-02-24T07:36:43.429Z,24.63
2019-02-24T07:39:13.465Z,24.17
2019-02-24T07:41:43.458Z,38.23
2019-02-24T07:44:15.819Z,31.57
2019-02-24T07:46:45.969Z,92.97
2019-02-24T07:49:16.020Z,27.97
2019-02-24T07:51:45.957Z,32.73
2019-02-24T07:54:15.945Z,20.63
2019-02-24T07:56:45.891Z,20.23
2019-02-24T07:59:15.862Z,20.67
2019-02-24T08:01:45.836Z,20.53
2019-02-24T08:04:15.907Z,19.47
2019-02-24T08:06:45.975Z,19.10
2019-02-24T08:09:15.983Z,19.17
2019-02-24T08:11:46.011Z,19.40
2019-02-24T08:14:15.949Z,19.20
2019-02-24T08:16:46.004Z,18.03
2019-02-24T08:19:17.132Z,18.90
2019-02-24T08:21:47.831Z,18.67
2019-02-24T08:24:17.712Z,18.63
2019-02-24T08:26:49.725Z,17.97
2019-02-24T08:29:21.524Z,17.93
2019-02-24T08:31:51.654Z,18.20
2019-02-24T08:34:21.654Z,18.90
2019-02-24T08:36:51.747Z,17.77
2019-02-24T08:39:21.808Z,18.90
2019-02-24T08:42:10.972Z,19.63
2019-02-24T08:44:41.007Z,18.53
2019-02-24T08:47:11.039Z,18.87
2019-02-24T08:49:40.956Z,19.90
2019-02-24T08:52:11.009Z,18.83
2019-02-24T08:54:40.870Z,20.20
2019-02-24T08:57:10.932Z,19.03
2019-02-24T08:59:41.096Z,19.40
2019-02-24T09:02:11.120Z,20.13
2019-02-24T09:04:41.183Z,18.43
2019-02-24T09:07:11.327Z,20.93
2019-02-24T09:09:41.581Z,19.83
2019-02-24T09:12:12.437Z,18.50
2019-02-24T09:14:43.193Z,20.17
2019-02-24T09:17:14.340Z,18.17
2019-02-24T09:19:45.523Z,19.80
2019-02-24T09:22:15.422Z,26.13
2019-02-24T09:24:45.432Z,19.33
2019-02-24T09:27:15.376Z,21.63
2019-02-24T09:29:45.282Z,18.07
2019-02-24T09:32:15.263Z,20.13
2019-02-24T09:34:45.636Z,20.40
2019-02-24T09:37:15.583Z,18.93
2019-02-24T09:39:45.599Z,19.93
2019-02-24T09:42:15.565Z,18.90
2019-02-24T09:44:45.507Z,18.97
2019-02-24T09:47:15.500Z,18.87
2019-02-24T09:49:45.851Z,19.23
2019-02-24T09:52:15.872Z,19.17
2019-02-24T09:54:45.958Z,18.70
2019-02-24T09:57:15.980Z,18.87
2019-02-24T09:59:45.891Z,18.53
2019-02-24T10:02:15.857Z,18.50
2019-02-24T10:04:45.909Z,18.77
2019-02-24T10:07:15.903Z,18.87
2019-02-24T10:09:45.835Z,18.60
2019-02-24T10:12:16.014Z,19.13
2019-02-24T10:14:45.938Z,19.80
2019-02-24T10:17:16.060Z,19.27
2019-02-24T10:19:46.051Z,19.20
2019-02-24T10:22:16.019Z,19.83
2019-02-24T10:24:46.432Z,19.93
2019-02-24T10:27:16.887Z,19.00
2019-02-24T10:29:46.904Z,18.87
2019-02-24T10:32:16.971Z,19.83
2019-02-24T10:34:47.091Z,20.37
2019-02-24T10:37:17.352Z,19.90
2019-02-24T10:39:47.319Z,19.77
2019-02-24T10:42:17.280Z,19.47
2019-02-24T10:44:47.552Z,19.97
2019-02-24T10:47:17.523Z,20.13
2019-02-24T10:49:47.587Z,20.17
2019-02-24T10:52:17.637Z,19.80
2019-02-24T10:54:47.559Z,20.50
2019-02-24T10:57:17.495Z,20.87
2019-02-24T10:59:47.541Z,20.50
2019-02-24T11:02:19.575Z,21.13
2019-02-24T11:04:49.517Z,20.40
2019-02-24T11:07:19.549Z,21.70
2019-02-24T11:09:49.651Z,21.43
2019-02-24T11:12:19.674Z,21.67
2019-02-24T11:14:49.726Z,20.93
2019-02-24T11:17:19.770Z,21.10
2019-02-24T11:19:49.682Z,22.43
2019-02-24T11:22:19.831Z,21.43
2019-02-24T11:24:49.940Z,20.50
2019-02-24T11:27:19.858Z,20.40
2019-02-24T11:29:50.099Z,20.60
2019-02-24T11:32:20.235Z,21.57
2019-02-24T11:34:50.245Z,20.40
2019-02-24T11:37:20.389Z,21.97
2019-02-24T11:39:50.590Z,22.03
2019-02-24T11:42:21.087Z,21.23
2019-02-24T11:44:51.136Z,20.90
2019-02-24T11:47:21.247Z,20.73
2019-02-24T11:49:51.251Z,22.33
2019-02-24T11:52:21.237Z,21.57
2019-02-24T11:54:51.275Z,20.32
2019-02-24T11:57:21.317Z,20.65
2019-02-24T11:59:51.872Z,20.12
2019-02-24T12:02:21.951Z,18.92
2019-02-24T12:04:52.076Z,20.45
2019-02-24T12:07:22.161Z,20.72
2019-02-24T12:09:52.946Z,20.60
2019-02-24T12:12:23.681Z,20.57
2019-02-24T12:14:54.029Z,20.08
2019-02-24T12:17:24.083Z,20.32
2019-02-24T12:19:54.056Z,20.37
2019-02-24T12:22:24.044Z,21.05
2019-02-24T12:24:54.292Z,21.30
2019-02-24T12:27:24.259Z,21.05
2019-02-24T12:29:54.335Z,20.65
2019-02-24T12:32:24.338Z,20.72
2019-02-24T12:34:55.027Z,19.37
2019-02-24T12:37:25.708Z,20.92
2019-02-24T12:39:56.475Z,20.82
2019-02-24T12:42:27.351Z,21.80
2019-02-24T12:44:58.161Z,21.63
2019-02-24T12:47:28.995Z,22.23
2019-02-24T12:50:03.249Z,21.57
2019-02-24T12:52:31.979Z,20.73
2019-02-24T12:55:03.109Z,22.07
2019-02-24T12:57:34.008Z,21.50
2019-02-24T13:00:04.816Z,21.10
2019-02-24T13:02:35.596Z,20.10
2019-02-24T13:05:06.127Z,20.82
2019-02-24T13:07:36.043Z,20.52
2019-02-24T13:10:07.384Z,20.30
2019-02-24T13:12:37.653Z,19.77
2019-02-24T13:15:07.878Z,17.45
2019-02-24T13:17:38.220Z,17.82
2019-02-24T13:20:09.989Z,18.45
2019-02-24T13:22:40.613Z,16.55
2019-02-24T13:25:11.008Z,17.17
2019-02-24T13:27:41.755Z,18.02
2019-02-24T13:30:14.015Z,17.50
2019-02-24T13:32:45.203Z,16.87
2019-02-24T13:35:16.126Z,16.65
2019-02-24T13:37:46.819Z,16.35
2019-02-24T13:40:16.972Z,15.83
2019-02-24T13:42:46.961Z,15.18
2019-02-24T13:45:17.268Z,15.78
2019-02-24T13:47:47.390Z,17.17
2019-02-24T13:50:17.663Z,17.57
2019-02-24T13:52:47.694Z,16.57
2019-02-24T13:55:17.887Z,16.57
2019-02-24T13:57:48.111Z,16.82
2019-02-24T14:00:18.323Z,15.00
2019-02-24T14:02:48.426Z,15.30
2019-02-24T14:05:18.706Z,15.23
2019-02-24T14:07:48.737Z,15.50
2019-02-24T14:10:18.829Z,14.87
2019-02-24T14:12:49.111Z,15.10
2019-02-24T14:15:19.312Z,14.83
2019-02-24T14:17:49.773Z,15.25
2019-02-24T14:20:20.848Z,14.40
2019-02-24T14:22:50.995Z,15.40
2019-02-24T14:25:21.244Z,14.03
2019-02-24T14:27:51.415Z,14.98
2019-02-24T14:30:21.615Z,15.10
2019-02-24T14:32:51.599Z,15.20
2019-02-24T14:35:21.700Z,14.80
2019-02-24T14:37:53.069Z,15.53
2019-02-24T14:40:24.032Z,16.13
2019-02-24T14:42:55.179Z,16.43
2019-02-24T14:45:25.839Z,17.00
2019-02-24T14:47:56.967Z,16.60
2019-02-24T14:50:27.075Z,16.70
2019-02-24T14:52:57.140Z,15.40
2019-02-24T14:55:27.067Z,16.17
2019-02-24T14:57:57.153Z,16.10
2019-02-24T15:00:27.281Z,15.27
2019-02-24T15:02:57.547Z,15.77
2019-02-24T15:05:27.537Z,15.73
2019-02-24T15:07:57.525Z,16.13
2019-02-24T15:10:27.579Z,14.80
2019-02-24T15:12:57.601Z,16.30
2019-02-24T15:15:32.982Z,14.97
2019-02-24T15:17:59.543Z,15.83
2019-02-24T15:20:29.771Z,15.87
2019-02-24T15:22:59.928Z,15.63
2019-02-24T15:25:30.066Z,14.97
2019-02-24T15:27:59.986Z,16.13
2019-02-24T15:30:32.008Z,15.97
2019-02-24T15:33:13.941Z,15.80
2019-02-24T15:35:43.894Z,16.00
2019-02-24T15:38:14.021Z,16.13
2019-02-24T15:40:44.090Z,15.13
2019-02-24T15:43:14.086Z,16.17
2019-02-24T15:45:44.133Z,15.20
2019-02-24T15:48:15.351Z,15.53
2019-02-24T15:50:45.877Z,16.13
2019-02-24T15:53:15.882Z,16.20
2019-02-24T15:55:46.264Z,14.93
2019-02-24T15:58:17.833Z,15.30
2019-02-24T16:00:47.830Z,14.33
2019-02-24T16:03:17.837Z,14.93
2019-02-24T16:05:47.888Z,14.07
2019-02-24T16:08:17.808Z,14.80
2019-02-24T16:10:48.015Z,14.80
2019-02-24T16:13:18.105Z,14.93
2019-02-24T16:15:48.267Z,15.20
2019-02-24T16:18:18.419Z,15.27
2019-02-24T16:20:48.517Z,15.00
2019-02-24T16:23:18.507Z,14.33
2019-02-24T16:25:48.652Z,15.93
2019-02-24T16:28:18.739Z,14.87
2019-02-24T16:30:48.831Z,14.80
2019-02-24T16:33:19.336Z,14.27
2019-02-24T16:35:49.456Z,13.40
2019-02-24T16:38:19.882Z,12.87
2019-02-24T16:40:49.903Z,12.80
2019-02-24T16:43:19.834Z,12.60
2019-02-24T16:45:50.146Z,12.50
2019-02-24T16:48:20.185Z,13.20
2019-02-24T16:50:50.387Z,12.37
2019-02-24T16:53:20.347Z,11.53
2019-02-24T16:55:50.519Z,12.33
2019-02-24T16:58:20.711Z,12.50
2019-02-24T17:00:50.781Z,11.80
2019-02-24T17:03:20.735Z,12.37
2019-02-24T17:05:50.929Z,13.93
2019-02-24T17:08:20.941Z,14.97
2019-02-24T17:10:51.443Z,14.60
2019-02-24T17:13:21.537Z,15.03
2019-02-24T17:15:51.511Z,15.80
2019-02-24T17:18:21.484Z,15.73
2019-02-24T17:20:51.414Z,15.80
2019-02-24T17:23:23.067Z,15.53
2019-02-24T17:25:53.216Z,16.17
2019-02-24T17:28:23.342Z,15.73
2019-02-24T17:30:53.515Z,16.77
2019-02-24T17:33:29.781Z,16.73
2019-02-24T17:35:55.233Z,17.37
2019-02-24T17:38:25.799Z,16.47
2019-02-24T17:40:55.928Z,15.20
2019-02-24T17:43:25.945Z,15.93
2019-02-24T17:45:55.993Z,15.43
2019-02-24T17:48:25.941Z,16.30
2019-02-24T17:50:56.093Z,15.33
2019-02-24T17:53:27.140Z,15.97
2019-02-24T17:55:57.199Z,15.47
2019-02-24T17:58:27.372Z,15.60
2019-02-24T18:01:01.178Z,16.23
2019-02-24T18:03:39.202Z,16.53
2019-02-24T18:06:04.684Z,16.40
2019-02-24T18:08:34.661Z,17.23
2019-02-24T18:11:05.461Z,16.00
2019-02-24T18:13:36.787Z,15.87
2019-02-24T18:16:07.584Z,15.80
2019-02-24T18:18:38.373Z,17.20
2019-02-24T18:21:09.119Z,17.03
2019-02-24T18:23:39.088Z,17.23
2019-02-24T18:26:09.087Z,17.40
2019-02-24T18:28:39.442Z,18.83
2019-02-24T18:31:10.519Z,16.60
2019-02-24T18:33:48.139Z,17.03
2019-02-24T18:36:12.326Z,17.27
2019-02-24T18:38:42.379Z,17.37
2019-02-24T18:41:13.231Z,17.57
2019-02-24T18:43:43.750Z,17.67
2019-02-24T18:46:13.826Z,17.43
2019-02-24T18:48:43.871Z,17.73
2019-02-24T18:51:13.975Z,17.30
2019-02-24T18:53:44.154Z,17.63
2019-02-24T18:56:14.170Z,16.67
2019-02-24T18:58:44.495Z,17.83
2019-02-24T19:01:14.499Z,16.93
2019-02-24T19:03:44.471Z,17.43
2019-02-24T19:06:14.524Z,17.60
2019-02-24T19:08:44.523Z,16.60
2019-02-24T19:11:15.018Z,17.57
2019-02-24T19:13:45.094Z,16.63
2019-02-24T19:16:15.307Z,16.43
2019-02-24T19:18:45.383Z,17.37
2019-02-24T19:21:15.861Z,17.07
2019-02-24T19:23:45.815Z,16.80
2019-02-24T19:26:15.751Z,17.13
2019-02-24T19:28:47.936Z,16.13
2019-02-24T19:31:17.928Z,16.00
2019-02-24T19:33:48.080Z,18.00
2019-02-24T19:36:18.056Z,16.60
2019-02-24T19:38:48.016Z,16.27
2019-02-24T19:41:18.092Z,16.90
2019-02-24T19:43:48.277Z,17.27
2019-02-24T19:46:18.307Z,16.57
2019-02-24T19:48:49.733Z,16.80
2019-02-24T19:51:19.873Z,16.77
2019-02-24T19:53:49.803Z,16.83
2019-02-24T19:56:19.764Z,16.90
2019-02-24T19:58:49.839Z,17.23
2019-02-24T20:01:19.825Z,17.17
2019-02-24T20:03:50.537Z,17.70
2019-02-24T20:06:20.742Z,17.07
2019-02-24T20:08:50.763Z,16.73
2019-02-24T20:11:20.940Z,18.30
2019-02-24T20:13:54.077Z,17.47
2019-02-24T20:16:24.172Z,16.77
2019-02-24T20:18:54.271Z,17.13
2019-02-24T20:21:24.221Z,16.93
2019-02-24T20:23:55.101Z,17.33
2019-02-24T20:26:25.979Z,16.53
2019-02-24T20:28:57.055Z,17.10
2019-02-24T20:31:27.848Z,15.73
2019-02-24T20:33:57.836Z,16.50
2019-02-24T20:36:27.879Z,16.77
2019-02-24T20:38:58.032Z,16.83
2019-02-24T20:41:28.119Z,17.63
2019-02-24T20:43:58.292Z,16.93
2019-02-24T20:46:29.128Z,16.67
2019-02-24T20:49:01.105Z,16.53
2019-02-24T20:51:31.839Z,16.53
2019-02-24T20:54:02.371Z,16.97
2019-02-24T20:56:33.075Z,17.47
2019-02-24T20:59:03.674Z,16.43
2019-02-24T21:01:34.279Z,16.60
2019-02-24T21:04:04.935Z,16.70
2019-02-24T21:06:35.435Z,16.73
2019-02-24T21:09:08.654Z,15.37
2019-02-24T21:11:40.244Z,16.23
2019-02-24T21:14:10.797Z,16.80
2019-02-24T21:16:41.413Z,16.80
2019-02-24T21:19:12.065Z,17.13
2019-02-24T21:21:42.690Z,18.53
2019-02-24T21:24:13.428Z,18.70
2019-02-24T21:26:43.947Z,18.77
2019-02-24T21:29:14.131Z,18.47
2019-02-24T21:31:44.221Z,19.27
2019-02-24T21:34:14.698Z,18.87
2019-02-24T21:36:44.592Z,21.37
2019-02-24T21:39:14.524Z,19.70
2019-02-24T21:41:44.422Z,18.57
2019-02-24T21:44:15.253Z,17.70
2019-02-24T21:46:46.941Z,17.90
2019-02-24T21:49:18.069Z,18.47
2019-02-24T21:51:49.620Z,17.57
2019-02-24T21:54:21.280Z,17.63
2019-02-24T21:56:52.232Z,18.27
2019-02-24T21:59:23.525Z,17.23
2019-02-24T22:01:54.606Z,17.17
2019-02-24T22:04:25.229Z,16.43
2019-02-24T22:06:55.904Z,16.07
2019-02-24T22:09:26.698Z,16.77
2019-02-24T22:11:57.216Z,16.47
2019-02-24T22:14:27.450Z,16.57
2019-02-24T22:16:57.467Z,16.30
2019-02-24T22:19:27.378Z,17.13
2019-02-24T22:21:57.257Z,16.47
2019-02-24T22:24:27.171Z,16.17
2019-02-24T22:26:57.043Z,16.67
2019-02-24T22:29:26.935Z,16.27
2019-02-24T22:31:56.813Z,17.20
2019-02-24T22:34:26.661Z,17.10
2019-02-24T22:36:56.554Z,16.60
2019-02-24T22:39:26.453Z,16.17
2019-02-24T22:41:56.303Z,15.87
2019-02-24T22:44:26.229Z,16.03
2019-02-24T22:46:56.203Z,16.13
2019-02-24T22:49:26.066Z,14.93
2019-02-24T22:51:56.030Z,15.97
2019-02-24T22:54:25.976Z,15.33
2019-02-24T22:56:55.938Z,15.40
2019-02-24T22:59:25.912Z,16.17
2019-02-24T23:01:55.995Z,15.67
2019-02-24T23:04:25.981Z,14.43
2019-02-24T23:06:57.980Z,15.77
2019-02-24T23:09:29.035Z,15.23
2019-02-24T23:12:00.304Z,15.87
2019-02-24T23:14:30.707Z,17.43
2019-02-24T23:17:00.911Z,16.47
2019-02-24T23:19:31.110Z,16.73
2019-02-24T23:24:40.440Z,16.43
2019-02-24T23:27:10.400Z,16.63
2019-02-24T23:29:41.006Z,17.00
2019-02-24T23:32:10.946Z,18.03
2019-02-24T23:34:41.442Z,16.93
2019-02-24T23:37:11.355Z,17.13
2019-02-24T23:39:41.287Z,16.83
2019-02-24T23:42:11.194Z,16.63
2019-02-24T23:44:41.140Z,17.67
2019-02-24T23:47:11.003Z,16.97
2019-02-24T23:49:40.908Z,16.73
2019-02-24T23:52:10.743Z,17.20
2019-02-24T23:54:41.501Z,16.37
2019-02-24T23:57:11.528Z,17.40
2019-02-24T23:59:41.442Z,16.43
